Time;durP1;ratioP1;P1;durP2;ratioP2;P2;SDS_P1;SDS_P2;PMS_P1;PMS_P2;Temp;Humidity;BMP_temperature;BMP_pressure;BME280_temperature;BME280_humidity;BME280_pressure;Samples;Min_cycle;Max_cycle;Signal;HPM_P1;HPM_P2
2020/12/01 00:01:11;;;;;;;34.40;16.43;;;0.10;99.90;;;;;;3480206;41;20115;-87
2020/12/01 00:03:39;;;;;;;29.43;16.33;;;0.20;99.90;;;;;;3463031;41;20143;-86
2020/12/01 00:06:05;;;;;;;31.43;15.57;;;0.20;99.90;;;;;;3453956;41;20675;-87
2020/12/01 00:08:30;;;;;;;36.37;17.40;;;0.20;99.90;;;;;;3443709;41;20107;-86
2020/12/01 00:11:00;;;;;;;33.50;16.20;;;0.30;99.90;;;;;;3463220;41;20161;-88
2020/12/01 00:13:27;;;;;;;32.13;16.70;;;0.20;99.90;;;;;;3468257;33;20390;-88
2020/12/01 00:15:53;;;;;;;36.53;18.37;;;0.30;99.90;;;;;;3459007;33;20170;-86
2020/12/01 00:18:21;;;;;;;33.47;17.30;;;0.30;99.90;;;;;;3452221;41;20681;-86
2020/12/01 00:20:47;;;;;;;32.00;16.97;;;0.30;99.90;;;;;;3484323;33;20127;-87
2020/12/01 00:23:13;;;;;;;32.93;17.17;;;0.30;99.90;;;;;;3472785;41;20107;-86
2020/12/01 00:25:39;;;;;;;36.97;18.67;;;0.30;99.90;;;;;;3445581;41;20120;-87
2020/12/01 00:28:05;;;;;;;33.20;16.47;;;0.30;99.90;;;;;;3427901;41;20131;-87
2020/12/01 00:30:42;;;;;;;37.03;17.20;;;0.30;99.90;;;;;;3456275;34;20100;-86
2020/12/01 00:33:10;;;;;;;37.03;18.30;;;0.40;99.90;;;;;;3448484;34;20108;-86
2020/12/01 00:35:37;;;;;;;32.10;17.23;;;0.40;99.90;;;;;;3445132;41;20177;-87
2020/12/01 00:38:03;;;;;;;36.20;18.23;;;0.40;99.90;;;;;;3452156;41;20606;-86
2020/12/01 00:40:31;;;;;;;34.93;17.70;;;0.40;99.90;;;;;;3460370;41;20099;-88
2020/12/01 00:42:59;;;;;;;36.63;17.70;;;0.50;99.90;;;;;;3462907;41;20111;-86
2020/12/01 00:45:26;;;;;;;34.13;16.37;;;0.50;99.90;;;;;;3451386;41;20632;-88
2020/12/01 00:47:54;;;;;;;36.07;17.33;;;0.50;99.90;;;;;;3454121;41;20104;-86
2020/12/01 00:50:23;;;;;;;36.70;18.47;;;0.50;99.90;;;;;;3456815;41;20100;-87
2020/12/01 00:52:49;;;;;;;35.87;17.77;;;0.50;99.90;;;;;;3466632;33;20623;-89
2020/12/01 00:55:22;;;;;;;36.80;18.20;;;0.50;99.90;;;;;;3466056;41;20068;-88
2020/12/01 01:00:32;;;;;;;37.90;18.43;;;0.60;99.90;;;;;;3587496;40;20634;-87
2020/12/01 01:03:12;;;;;;;36.83;18.20;;;0.60;99.90;;;;;;3594788;32;20544;-87
2020/12/01 05:55:26;;;;;;;38.77;17.07;;;1.20;99.90;;;;;;3607776;39;20083;-87
2020/12/01 05:58:02;;;;;;;38.17;16.17;;;1.20;99.90;;;;;;3590915;40;20801;-86
2020/12/01 06:00:34;;;;;;;34.67;15.43;;;1.20;99.90;;;;;;3599115;39;20155;-85
2020/12/01 06:03:17;;;;;;;36.28;15.82;;;1.10;99.90;;;;;;3599356;39;20079;-86
2020/12/01 06:05:47;;;;;;;33.93;16.13;;;1.10;99.90;;;;;;3599377;39;20082;-88
2020/12/01 06:08:16;;;;;;;35.87;15.50;;;1.10;99.90;;;;;;3601866;32;20660;-87
2020/12/01 06:10:48;;;;;;;37.33;15.20;;;1.20;99.90;;;;;;3608021;39;20124;-87
2020/12/01 06:13:27;;;;;;;37.35;16.85;;;1.20;99.90;;;;;;3607022;32;20663;-87
2020/12/01 06:16:02;;;;;;;34.23;15.80;;;1.20;99.90;;;;;;3599244;39;20107;-86
2020/12/01 06:18:55;;;;;;;32.77;14.70;;;1.20;99.90;;;;;;3599103;39;20095;-86
2020/12/01 06:21:45;;;;;;;33.70;15.90;;;1.20;99.90;;;;;;3605266;32;20761;-86
2020/12/01 06:24:35;;;;;;;32.43;15.03;;;1.20;99.90;;;;;;3601749;32;20089;-85
2020/12/01 06:27:36;;;;;;;39.70;16.90;;;1.20;99.90;;;;;;3599016;32;20095;-86
2020/12/01 06:30:24;;;;;;;43.87;17.03;;;1.20;99.90;;;;;;3589011;32;20095;-86
2020/12/01 06:33:15;;;;;;;36.57;16.07;;;1.20;99.90;;;;;;3589095;40;20107;-85
2020/12/01 06:36:19;;;;;;;37.83;16.47;;;1.20;99.90;;;;;;3595844;32;20201;-86
2020/12/01 06:39:10;;;;;;;37.80;15.80;;;1.20;99.90;;;;;;3597179;32;20126;-86
2020/12/01 06:41:40;;;;;;;37.40;16.57;;;1.20;99.90;;;;;;3592042;32;20099;-86
2020/12/01 06:44:15;;;;;;;43.53;16.40;;;1.20;99.90;;;;;;3600337;32;20096;-86
2020/12/01 06:46:48;;;;;;;38.97;15.63;;;1.20;99.90;;;;;;3589141;40;20080;-86
2020/12/01 06:49:27;;;;;;;32.67;15.03;;;1.20;99.90;;;;;;3594030;32;20080;-86
2020/12/01 06:51:59;;;;;;;37.23;15.40;;;1.30;99.90;;;;;;3590827;32;20103;-84
2020/12/01 06:54:25;;;;;;;34.53;15.20;;;1.30;99.90;;;;;;3607606;39;20683;-86
2020/12/01 06:57:23;;;;;;;38.13;15.77;;;1.30;99.90;;;;;;3608283;39;20149;-85
2020/12/01 06:59:48;;;;;;;37.17;15.70;;;1.30;99.90;;;;;;3608144;39;20075;-86
2020/12/01 07:02:33;;;;;;;33.30;14.70;;;1.30;99.90;;;;;;3598605;40;20122;-87
2020/12/01 07:05:28;;;;;;;31.43;14.23;;;1.30;99.90;;;;;;3597746;39;20622;-86
2020/12/01 07:07:54;;;;;;;31.73;14.33;;;1.20;99.90;;;;;;3594733;32;20121;-87
2020/12/01 07:10:32;;;;;;;33.67;14.93;;;1.30;99.90;;;;;;3601315;32;20114;-86
2020/12/01 07:13:31;;;;;;;29.87;13.10;;;1.30;99.90;;;;;;3607570;32;20086;-85
2020/12/01 07:16:18;;;;;;;31.50;14.23;;;1.30;99.90;;;;;;3598521;39;20087;-85
2020/12/01 07:18:46;;;;;;;29.17;13.77;;;1.30;99.90;;;;;;3600304;32;20099;-85
2020/12/01 07:21:14;;;;;;;34.07;13.77;;;1.30;99.90;;;;;;3607703;39;20091;-86
2020/12/01 07:24:21;;;;;;;33.07;14.13;;;1.30;99.90;;;;;;3606120;32;20129;-85
2020/12/01 07:26:47;;;;;;;30.60;14.00;;;1.30;99.90;;;;;;3602414;32;20095;-86
2020/12/01 07:29:26;;;;;;;34.93;14.60;;;1.30;99.90;;;;;;3607692;39;20747;-85
2020/12/01 07:32:21;;;;;;;27.53;12.83;;;1.30;99.90;;;;;;3598894;40;20083;-87
2020/12/01 07:34:49;;;;;;;30.97;12.70;;;1.30;99.90;;;;;;3605628;32;20113;-86
2020/12/01 07:37:32;;;;;;;31.50;13.80;;;1.30;99.90;;;;;;3607001;32;20102;-86
2020/12/01 07:40:00;;;;;;;31.17;13.10;;;1.30;99.90;;;;;;3590670;40;20111;-85
2020/12/01 07:42:31;;;;;;;29.50;13.30;;;1.30;99.90;;;;;;3623667;32;20110;-87
2020/12/01 07:44:57;;;;;;;35.20;13.70;;;1.30;99.90;;;;;;3615257;32;20114;-87
2020/12/01 07:47:27;;;;;;;33.77;13.33;;;1.30;99.90;;;;;;3619078;39;20476;-86
2020/12/01 07:50:22;;;;;;;30.37;13.27;;;1.30;99.90;;;;;;3618371;32;20087;-87
2020/12/01 07:52:57;;;;;;;27.50;13.17;;;1.40;99.90;;;;;;3599887;32;20082;-90
2020/12/01 07:55:57;;;;;;;34.23;14.07;;;1.40;99.90;;;;;;3613821;32;20070;-88
2020/12/01 07:58:25;;;;;;;26.10;12.43;;;1.40;99.90;;;;;;3618724;32;20078;-90
2020/12/01 08:00:57;;;;;;;31.80;13.37;;;1.40;99.90;;;;;;3590444;40;20064;-89
2020/12/01 08:03:27;;;;;;;31.17;12.43;;;1.40;99.90;;;;;;3597259;32;20829;-89
2020/12/01 08:05:59;;;;;;;27.57;12.47;;;1.40;99.90;;;;;;3590685;32;20064;-89
2020/12/01 08:08:30;;;;;;;28.60;12.18;;;1.40;99.90;;;;;;3597798;32;20080;-88
2020/12/01 08:10:57;;;;;;;30.20;12.33;;;1.40;99.90;;;;;;3596817;32;20136;-89
2020/12/01 08:13:25;;;;;;;22.77;11.60;;;1.40;99.90;;;;;;3590371;40;20696;-88
2020/12/01 08:16:00;;;;;;;26.67;13.07;;;1.40;99.90;;;;;;3590136;40;20079;-90
2020/12/01 08:18:28;;;;;;;24.87;11.67;;;1.40;99.90;;;;;;3597637;32;20074;-90
2020/12/01 08:20:55;;;;;;;23.83;12.03;;;1.40;99.90;;;;;;3606175;32;20079;-91
2020/12/01 08:23:26;;;;;;;26.13;11.30;;;1.40;99.90;;;;;;3599121;40;20087;-88
2020/12/01 08:26:17;;;;;;;25.80;11.57;;;1.40;99.90;;;;;;3590485;32;20087;-89
2020/12/01 08:28:47;;;;;;;24.83;11.80;;;1.50;99.90;;;;;;3589992;40;20075;-89
2020/12/01 08:31:22;;;;;;;22.53;10.50;;;1.40;99.90;;;;;;3590322;32;20134;-91
2020/12/01 08:34:04;;;;;;;24.87;11.53;;;1.40;99.90;;;;;;3597561;32;20107;-90
2020/12/01 08:36:45;;;;;;;26.20;11.45;;;1.40;99.90;;;;;;3597708;32;20080;-89
2020/12/01 08:39:34;;;;;;;20.33;10.40;;;1.40;99.90;;;;;;3592847;32;20811;-88
2020/12/01 08:42:18;;;;;;;20.57;10.07;;;1.50;99.90;;;;;;3595806;32;20120;-89
2020/12/01 08:45:23;;;;;;;19.10;9.70;;;1.50;99.90;;;;;;3596687;32;20075;-89
2020/12/01 08:47:55;;;;;;;18.97;9.47;;;1.50;99.90;;;;;;3589854;40;20099;-91
2020/12/01 08:50:29;;;;;;;19.70;10.13;;;1.50;99.90;;;;;;3598381;40;20079;-90
2020/12/01 08:53:09;;;;;;;22.03;10.13;;;1.50;99.90;;;;;;3596400;32;20189;-91
2020/12/01 08:55:56;;;;;;;20.20;9.27;;;1.50;99.90;;;;;;3596901;32;20137;-89
2020/12/01 08:58:37;;;;;;;17.97;9.23;;;1.50;99.90;;;;;;3592345;32;20121;-90
2020/12/01 09:01:09;;;;;;;17.97;9.00;;;1.50;99.90;;;;;;3595864;32;20086;-89
2020/12/01 09:03:37;;;;;;;18.73;9.35;;;1.50;99.90;;;;;;3588671;40;20107;-89
2020/12/01 09:06:04;;;;;;;20.30;9.07;;;1.50;99.90;;;;;;3589188;40;20126;-89
2020/12/01 09:08:47;;;;;;;19.23;9.97;;;1.50;99.90;;;;;;3589304;40;20083;-88
2020/12/01 09:14:00;;;;;;;18.80;8.77;;;1.50;99.90;;;;;;3598422;40;20107;-88
2020/12/01 09:16:47;;;;;;;17.30;8.57;;;1.60;99.90;;;;;;3597736;40;20095;-90
2020/12/01 09:21:52;;;;;;;19.13;8.37;;;1.60;99.90;;;;;;3598298;40;20064;-90
2020/12/01 09:24:23;;;;;;;19.40;8.70;;;1.60;99.90;;;;;;3592582;32;20114;-90
2020/12/01 09:27:02;;;;;;;14.50;7.90;;;1.70;99.90;;;;;;3592205;32;20115;-90
2020/12/01 09:29:29;;;;;;;15.53;7.70;;;1.70;99.90;;;;;;3588998;40;20099;-88
2020/12/01 09:31:56;;;;;;;16.17;8.23;;;1.70;99.90;;;;;;3587746;40;20117;-89
2020/12/01 09:34:23;;;;;;;15.10;7.73;;;1.70;99.90;;;;;;3581322;40;20126;-90
2020/12/01 09:36:56;;;;;;;17.13;8.47;;;1.70;99.90;;;;;;3589796;32;20111;-91
2020/12/01 09:39:21;;;;;;;16.83;8.90;;;1.70;99.90;;;;;;3606620;32;20071;-91
2020/12/01 09:41:55;;;;;;;18.53;8.53;;;1.80;99.90;;;;;;3589443;32;20099;-90
2020/12/01 09:46:57;;;;;;;14.40;7.77;;;1.70;99.90;;;;;;3600565;32;20126;-91
2020/12/01 09:49:22;;;;;;;18.23;8.23;;;1.80;99.90;;;;;;3594441;32;20080;-90
2020/12/01 09:51:58;;;;;;;15.93;7.57;;;1.70;99.90;;;;;;3589522;40;20603;-90
2020/12/01 09:54:38;;;;;;;14.77;8.10;;;1.70;99.90;;;;;;3598175;40;20657;-91
2020/12/01 09:57:54;;;;;;;14.50;8.33;;;1.70;99.90;;;;;;3589378;40;20099;-90
2020/12/01 10:11:18;;;;;;;14.77;7.53;;;1.70;99.90;;;;;;3598232;32;20135;-91
2020/12/01 10:13:40;;;;;;;16.03;7.67;;;1.70;99.90;;;;;;3597177;32;20079;-89
2020/12/01 10:33:54;;;;;;;13.45;6.72;;;1.70;99.90;;;;;;3597976;40;20076;-89
2020/12/01 10:35:20;;;;;;;12.73;6.27;;;1.70;99.90;;;;;;3597910;32;20083;-91
2020/12/01 10:37:45;;;;;;;13.33;6.30;;;1.80;99.90;;;;;;3596535;32;20080;-91
2020/12/01 10:40:11;;;;;;;16.43;7.30;;;1.70;99.90;;;;;;3597548;39;20092;-89
2020/12/01 10:42:37;;;;;;;15.03;7.60;;;1.80;99.90;;;;;;3589260;40;20771;-91
2020/12/01 10:45:03;;;;;;;14.27;7.13;;;1.80;99.90;;;;;;3597371;40;20103;-90
2020/12/01 10:47:29;;;;;;;14.33;6.73;;;1.80;99.90;;;;;;3608183;39;20099;-91
2020/12/01 10:49:54;;;;;;;12.57;6.73;;;1.80;99.90;;;;;;3609283;39;20079;-90
2020/12/01 10:52:20;;;;;;;12.97;6.90;;;1.80;99.90;;;;;;3609251;39;20349;-90
2020/12/01 10:54:45;;;;;;;13.77;6.90;;;1.80;99.90;;;;;;3609617;39;20074;-91
2020/12/01 10:57:11;;;;;;;11.83;6.57;;;1.80;99.90;;;;;;3609117;39;20079;-90
2020/12/01 10:59:37;;;;;;;12.27;6.57;;;1.80;99.90;;;;;;3618031;39;20083;-91
2020/12/01 11:02:03;;;;;;;15.17;6.27;;;1.80;99.90;;;;;;3609225;39;20644;-91
2020/12/01 11:04:29;;;;;;;14.43;6.90;;;1.80;99.90;;;;;;3609342;39;20801;-91
2020/12/01 11:06:54;;;;;;;14.10;6.57;;;1.80;99.90;;;;;;3610229;39;20083;-90
2020/12/01 11:09:20;;;;;;;16.20;7.53;;;1.80;99.90;;;;;;3611194;39;20075;-89
2020/12/01 11:11:45;;;;;;;14.17;6.97;;;1.90;99.90;;;;;;3611241;39;20128;-92
2020/12/01 11:14:11;;;;;;;12.47;6.90;;;1.90;99.90;;;;;;3611169;39;20101;-90
2020/12/01 11:16:37;;;;;;;11.57;6.57;;;1.80;99.90;;;;;;3611146;39;20091;-93
2020/12/01 11:19:03;;;;;;;12.67;6.50;;;1.80;99.90;;;;;;3619634;39;20082;-91
2020/12/01 11:21:29;;;;;;;12.93;6.40;;;1.80;99.90;;;;;;3611154;39;20110;-92
2020/12/01 11:23:55;;;;;;;13.47;6.93;;;1.80;99.90;;;;;;3611033;39;20296;-92
2020/12/01 11:26:21;;;;;;;14.40;7.20;;;1.80;99.90;;;;;;3610925;39;20082;-91
2020/12/01 11:28:48;;;;;;;17.77;8.33;;;1.80;99.90;;;;;;3610913;39;20095;-89
2020/12/01 11:31:15;;;;;;;12.87;7.67;;;1.80;99.90;;;;;;3611023;39;20082;-91
2020/12/01 11:33:43;;;;;;;17.43;9.20;;;1.80;99.90;;;;;;3610723;39;20090;-92
2020/12/01 11:36:09;;;;;;;12.87;7.43;;;1.80;99.90;;;;;;3610751;39;20845;-90
2020/12/01 11:38:35;;;;;;;15.30;7.97;;;1.70;99.90;;;;;;3618730;32;20099;-93
2020/12/01 11:41:00;;;;;;;14.50;8.10;;;1.70;99.90;;;;;;3610689;39;20082;-91
2020/12/01 11:43:26;;;;;;;14.87;7.60;;;1.70;99.90;;;;;;3610841;39;20085;-92
2020/12/01 11:45:51;;;;;;;14.37;7.87;;;1.70;99.90;;;;;;3611046;39;20083;-91
2020/12/01 11:48:17;;;;;;;13.30;7.67;;;1.70;99.90;;;;;;3611131;39;20765;-90
2020/12/01 11:50:43;;;;;;;17.97;8.23;;;1.70;99.90;;;;;;3611053;39;20090;-91
2020/12/01 15:15:59;;;;;;;16.13;9.37;;;2.40;99.90;;;;;;3589961;40;20076;-91
2020/12/01 15:30:20;;;;;;;14.87;7.13;;;2.30;99.90;;;;;;3607791;39;20071;-86
2020/12/01 16:17:01;;;;;;;16.33;10.37;;;2.30;99.90;;;;;;1049231;34;20106;-84
2020/12/01 17:58:56;;;;;;;34.27;16.97;;;;;;;;;;3625058;32;20046;-94
2020/12/01 18:17:22;;;;;;;51.10;16.70;;;;;;;;;;3609029;39;20090;-94
2020/12/01 18:20:07;;;;;;;32.97;15.57;;;;;;;;;;3578497;40;20052;-94
2020/12/01 18:25:27;;;;;;;43.47;17.73;;;;;;;;;;3607930;39;20075;-90
2020/12/01 18:27:55;;;;;;;41.88;16.92;;;;;;;;;;3629104;32;20052;-93
2020/12/01 18:30:26;;;;;;;37.53;15.60;;;;;;;;;;3538974;40;20062;-92
2020/12/01 18:40:38;;;;;;;31.97;15.23;;;;;;;;;;3588693;40;19999;-96
2020/12/01 18:58:39;;;;;;;33.23;16.37;;;;;;;;;;3588378;40;20141;-95
2020/12/01 19:01:17;;;;;;;37.50;16.57;;;;;;;;;;3568374;40;20099;-96
2020/12/01 20:39:24;;;;;;;39.88;12.58;;;;;;;;;;3910854;26;20084;31
2020/12/01 20:46:57;;;;;;;59.63;15.30;;;;;;;;;;3589718;40;20084;-96
2020/12/01 22:57:54;;;;;;;21.97;12.13;;;;;;;;;;3606999;39;20093;-87
2020/12/01 23:00:23;;;;;;;19.83;11.90;;;;;;;;;;3604313;32;20134;-87
2020/12/01 23:02:49;;;;;;;20.27;12.77;;;;;;;;;;3589638;39;20091;-90
2020/12/01 23:05:15;;;;;;;23.17;13.20;;;;;;;;;;3599290;32;20114;-89
2020/12/01 23:07:49;;;;;;;26.97;14.37;;;;;;;;;;3603741;32;20177;-88
2020/12/01 23:10:23;;;;;;;26.23;14.17;;;;;;;;;;3596286;32;20755;-90
2020/12/01 23:57:00;;;;;;;25.60;13.43;;;;;;;;;;3633770;26;20129;-89
2020/12/01 23:59:26;;;;;;;29.47;13.97;;;;;;;;;;3597152;32;20094;-88
